createdAt,value
2019-05-20T00:00:51.709Z,15.95
2019-05-20T00:05:15.969Z,15.85
2019-05-20T00:09:40.131Z,15.79
2019-05-20T00:14:04.364Z,15.76
2019-05-20T00:18:29.375Z,15.70
2019-05-20T00:22:53.243Z,15.65
2019-05-20T00:27:17.751Z,15.58
2019-05-20T00:31:41.629Z,15.49
2019-05-20T00:36:05.964Z,15.44
2019-05-20T00:40:30.092Z,15.39
2019-05-20T00:44:54.207Z,15.40
2019-05-20T00:49:18.312Z,15.33
2019-05-20T00:53:42.670Z,15.26
2019-05-20T00:58:06.781Z,15.24
2019-05-20T01:02:30.651Z,15.23
2019-05-20T01:06:55.959Z,15.21
2019-05-20T01:11:20.080Z,15.21
2019-05-20T01:15:44.182Z,15.27
2019-05-20T01:20:10.556Z,15.28
2019-05-20T01:24:34.415Z,15.19
2019-05-20T01:28:58.600Z,15.14
2019-05-20T01:33:22.699Z,15.14
2019-05-20T01:37:46.615Z,15.18
2019-05-20T01:42:10.869Z,15.17
2019-05-20T01:46:35.209Z,15.10
2019-05-20T01:50:59.017Z,15.16
2019-05-20T01:55:22.822Z,15.11
2019-05-20T01:59:46.742Z,15.13
2019-05-20T02:04:10.937Z,15.16
2019-05-20T02:08:34.811Z,15.24
2019-05-20T02:12:58.609Z,15.14
2019-05-20T02:17:22.759Z,15.14
2019-05-20T02:21:46.575Z,15.22
2019-05-20T02:26:10.551Z,15.30
2019-05-20T02:30:34.547Z,15.41
2019-05-20T02:34:59.244Z,15.46
2019-05-20T02:39:26.507Z,15.49
2019-05-20T02:43:48.728Z,15.42
2019-05-20T02:48:12.717Z,15.33
2019-05-20T02:52:36.908Z,15.38
2019-05-20T02:57:00.934Z,15.31
2019-05-20T03:01:24.947Z,15.29
2019-05-20T03:05:49.097Z,15.37
2019-05-20T03:10:13.763Z,15.45
2019-05-20T03:14:37.719Z,15.45
2019-05-20T03:19:01.895Z,15.43
2019-05-20T03:23:25.836Z,15.44
2019-05-20T03:27:50.894Z,15.38
2019-05-20T03:32:14.891Z,15.31
2019-05-20T03:36:39.081Z,15.35
2019-05-20T03:41:03.567Z,15.38
2019-05-20T03:45:28.890Z,15.42
2019-05-20T03:49:52.775Z,15.46
2019-05-20T03:54:16.594Z,15.43
2019-05-20T03:58:40.614Z,15.44
2019-05-20T04:03:06.023Z,15.44
2019-05-20T04:07:29.858Z,15.33
2019-05-20T04:11:53.867Z,15.43
2019-05-20T04:16:18.009Z,15.47
2019-05-20T04:20:42.154Z,15.59
2019-05-20T04:25:07.204Z,15.57
2019-05-20T04:29:32.056Z,15.56
2019-05-20T04:33:55.931Z,15.50
2019-05-20T04:38:19.810Z,15.49
2019-05-20T04:42:44.592Z,15.53
2019-05-20T04:47:09.509Z,15.68
2019-05-20T04:51:34.089Z,15.83
2019-05-20T04:55:57.957Z,15.90
2019-05-20T05:00:57.033Z,15.90
2019-05-20T05:05:36.550Z,15.89
2019-05-20T05:09:48.535Z,15.76
2019-05-20T05:14:12.818Z,15.84
2019-05-20T05:18:36.987Z,16.01
2019-05-20T05:23:02.477Z,16.01
2019-05-20T05:27:27.777Z,16.03
2019-05-20T05:31:52.870Z,15.98
2019-05-20T05:36:19.520Z,15.91
2019-05-20T05:40:44.007Z,15.93
2019-05-20T05:45:09.042Z,16.08
2019-05-20T05:49:33.753Z,16.09
2019-05-20T05:53:58.801Z,16.12
2019-05-20T05:58:22.876Z,16.28
2019-05-20T06:02:48.544Z,16.29
2019-05-20T06:07:13.657Z,16.31
2019-05-20T06:11:38.089Z,16.40
2019-05-20T06:16:04.634Z,16.56
2019-05-20T06:25:02.556Z,16.64
2019-05-20T06:29:26.964Z,16.69
2019-05-20T06:33:52.583Z,16.67
2019-05-20T06:38:42.325Z,16.79
2019-05-20T06:43:07.660Z,16.77
2019-05-20T06:47:31.983Z,16.84
2019-05-20T06:51:55.880Z,16.78
2019-05-20T06:56:20.186Z,16.62
2019-05-20T07:00:45.718Z,16.69
2019-05-20T07:05:11.410Z,16.73
2019-05-20T07:09:35.506Z,16.79
2019-05-20T07:14:00.143Z,16.78
2019-05-20T07:18:27.521Z,16.81
2019-05-20T07:22:55.790Z,16.84
2019-05-20T07:27:18.133Z,16.73
2019-05-20T07:31:44.473Z,16.80
2019-05-20T07:36:10.079Z,16.80
2019-05-20T07:40:34.543Z,16.79
2019-05-20T07:45:01.251Z,16.88
2019-05-20T07:49:25.504Z,16.89
2019-05-20T07:53:50.971Z,16.96
2019-05-20T07:58:18.039Z,17.08
2019-05-20T08:02:42.177Z,17.14
2019-05-20T08:07:26.002Z,17.24
2019-05-20T08:11:32.490Z,17.19
2019-05-20T08:15:57.581Z,17.18
2019-05-20T08:20:22.222Z,17.21
2019-05-20T08:24:46.122Z,17.25
2019-05-20T08:29:10.602Z,17.25
2019-05-20T08:33:34.655Z,17.19
2019-05-20T08:37:58.807Z,17.36
2019-05-20T08:42:23.216Z,17.33
2019-05-20T08:46:47.454Z,17.38
2019-05-20T08:51:11.595Z,17.60
2019-05-20T08:55:35.474Z,17.60
2019-05-20T08:59:59.360Z,17.61
2019-05-20T09:04:23.635Z,17.60
2019-05-20T09:08:47.725Z,17.56
2019-05-20T09:13:11.919Z,17.59
2019-05-20T09:17:38.818Z,17.79
2019-05-20T09:22:02.547Z,17.83
2019-05-20T09:26:26.661Z,18.03
2019-05-20T09:30:51.194Z,18.17
2019-05-20T09:35:15.335Z,18.38
2019-05-20T09:39:39.555Z,18.54
2019-05-20T09:44:06.386Z,18.54
2019-05-20T09:48:30.397Z,18.64
2019-05-20T09:52:54.586Z,18.58
2019-05-20T09:57:18.886Z,18.75
2019-05-20T10:01:44.251Z,18.83
2019-05-20T10:06:08.641Z,18.73
2019-05-20T10:10:32.589Z,18.68
2019-05-20T10:14:57.864Z,18.78
2019-05-20T10:19:22.452Z,18.95
2019-05-20T10:23:50.404Z,18.96
2019-05-20T10:28:14.562Z,19.13
2019-05-20T10:37:11.437Z,19.34
2019-05-20T10:41:35.759Z,19.39
2019-05-20T10:46:00.425Z,19.37
2019-05-20T10:50:24.847Z,19.42
2019-05-20T10:54:49.744Z,19.64
2019-05-20T10:59:14.726Z,20.03
2019-05-20T11:03:38.596Z,20.71
2019-05-20T11:08:03.031Z,21.30
2019-05-20T11:12:27.141Z,21.42
2019-05-20T11:16:51.458Z,21.81
2019-05-20T11:21:15.732Z,21.81
2019-05-20T11:25:39.845Z,22.54
2019-05-20T11:30:07.328Z,22.54
2019-05-20T11:34:32.021Z,22.97
2019-05-20T11:38:56.095Z,23.04
2019-05-20T11:43:20.302Z,23.04
2019-05-20T11:47:44.303Z,23.15
2019-05-20T11:52:08.515Z,23.48
2019-05-20T11:56:32.544Z,23.78
2019-05-20T12:00:56.677Z,23.64
2019-05-20T12:05:21.060Z,23.69
2019-05-20T12:09:51.180Z,23.69
2019-05-20T12:14:16.821Z,24.00
2019-05-20T12:18:44.865Z,23.95
2019-05-20T12:23:07.257Z,23.88
2019-05-20T12:27:32.681Z,23.76
2019-05-20T12:31:57.804Z,23.87
2019-05-20T12:36:22.281Z,23.90
2019-05-20T12:40:46.471Z,23.94
2019-05-20T12:45:11.014Z,23.79
2019-05-20T12:49:35.610Z,23.76
2019-05-20T12:54:00.367Z,23.86
2019-05-20T12:58:24.864Z,24.00
2019-05-20T13:02:49.302Z,23.82
2019-05-20T13:07:14.293Z,23.66
2019-05-20T13:11:38.831Z,23.60
2019-05-20T13:16:02.914Z,23.51
2019-05-20T13:20:28.201Z,23.23
2019-05-20T13:24:52.091Z,23.23
2019-05-20T13:29:16.052Z,23.35
2019-05-20T13:38:03.129Z,23.18
2019-05-20T13:42:27.027Z,23.18
2019-05-20T13:46:50.903Z,23.09
2019-05-20T13:51:15.112Z,23.36
2019-05-20T13:55:39.305Z,23.83
2019-05-20T14:00:03.797Z,23.83
2019-05-20T14:04:27.803Z,23.78
2019-05-20T14:08:51.917Z,23.96
2019-05-20T14:13:16.066Z,24.10
2019-05-20T14:17:41.203Z,24.15
2019-05-20T14:22:06.919Z,24.15
2019-05-20T14:26:30.811Z,24.04
2019-05-20T14:30:54.968Z,23.85
2019-05-20T14:35:19.032Z,23.88
2019-05-20T14:39:43.419Z,24.15
2019-05-20T14:44:07.881Z,24.18
2019-05-20T14:48:31.833Z,24.21
2019-05-20T14:52:57.032Z,23.92
2019-05-20T14:57:21.485Z,24.06
2019-05-20T15:01:45.843Z,24.02
2019-05-20T15:06:11.299Z,23.87
2019-05-20T15:10:35.586Z,23.85
2019-05-20T15:14:59.713Z,23.60
2019-05-20T15:19:23.886Z,23.17
2019-05-20T15:23:48.691Z,23.17
2019-05-20T15:28:13.192Z,22.96
2019-05-20T15:32:37.082Z,22.75
2019-05-20T15:37:01.331Z,22.62
2019-05-20T15:41:25.511Z,22.48
2019-05-20T15:45:49.598Z,22.42
2019-05-20T15:50:15.550Z,22.20
2019-05-20T15:54:39.813Z,22.17
2019-05-20T15:59:04.855Z,22.17
2019-05-20T16:03:29.161Z,21.98
2019-05-20T16:07:53.519Z,21.63
2019-05-20T16:12:17.966Z,21.46
2019-05-20T16:16:42.089Z,21.29
2019-05-20T16:21:06.367Z,21.04
2019-05-20T16:25:30.774Z,20.71
2019-05-20T16:30:06.034Z,20.71
2019-05-20T16:34:21.798Z,20.72
2019-05-20T16:38:46.474Z,20.83
2019-05-20T16:43:10.936Z,20.95
2019-05-20T16:47:35.418Z,20.81
2019-05-20T16:51:59.639Z,20.64
2019-05-20T16:56:24.498Z,20.58
2019-05-20T17:00:48.934Z,20.45
2019-05-20T17:05:16.159Z,20.45
2019-05-20T17:09:40.170Z,20.34
2019-05-20T17:14:04.379Z,20.20
2019-05-20T17:18:28.806Z,20.10
2019-05-20T17:22:53.553Z,19.98
2019-05-20T17:27:18.649Z,19.86
2019-05-20T17:31:42.609Z,19.81
2019-05-20T17:36:06.807Z,19.77
2019-05-20T17:40:30.978Z,19.58
2019-05-20T17:44:55.882Z,19.58
2019-05-20T17:49:20.389Z,19.70
2019-05-20T17:53:44.552Z,19.69
2019-05-20T17:58:09.569Z,19.57
2019-05-20T18:02:33.889Z,19.47
2019-05-20T18:11:29.720Z,19.35
2019-05-20T18:15:53.580Z,19.34
2019-05-20T18:20:20.037Z,19.28
2019-05-20T18:24:45.979Z,19.34
2019-05-20T18:29:10.346Z,19.27
2019-05-20T18:33:34.824Z,19.26
2019-05-20T18:37:59.194Z,19.27
2019-05-20T18:42:26.651Z,19.18
2019-05-20T18:46:52.810Z,19.26
2019-05-20T18:51:17.727Z,19.23
2019-05-20T18:55:42.885Z,19.24
